Time;durP1;ratioP1;P1;durP2;ratioP2;P2;SDS_P1;SDS_P2;PMS_P1;PMS_P2;Temp;Humidity;BMP_temperature;BMP_pressure;BME280_temperature;BME280_humidity;BME280_pressure;Samples;Min_cycle;Max_cycle;Signal;HPM_P1;HPM_P2
2023/05/23 00:01:20;;;;;;;;;;;22.20;54.40;;;;;;5034075;28;19905;-74
2023/05/23 00:03:46;;;;;;;;;;;22.20;54.80;;;;;;5034372;28;19912;-74
2023/05/23 00:06:13;;;;;;;;;;;22.30;54.70;;;;;;5034997;28;19916;-74
2023/05/23 00:08:39;;;;;;;;;;;22.30;54.70;;;;;;5033205;28;19909;-74
2023/05/23 00:11:04;;;;;;;;;;;22.30;54.50;;;;;;5034274;28;19913;-74
2023/05/23 00:13:33;;;;;;;;;;;22.30;54.60;;;;;;5033830;28;19909;-74
2023/05/23 00:15:59;;;;;;;;;;;22.30;54.00;;;;;;5032596;28;19967;-74
2023/05/23 00:18:24;;;;;;;;;;;22.40;54.10;;;;;;5033770;28;20390;-74
2023/05/23 00:20:50;;;;;;;;;;;22.40;54.90;;;;;;5033582;28;19905;-74
2023/05/23 00:23:19;;;;;;;;;;;22.40;54.50;;;;;;5033876;28;20259;-74
2023/05/23 00:25:51;;;;;;;;;;;22.40;54.70;;;;;;5032358;28;19909;-74
2023/05/23 00:28:17;;;;;;;;;;;22.40;54.60;;;;;;5034400;28;19980;-74
2023/05/23 00:30:42;;;;;;;;;;;22.40;54.50;;;;;;5038844;28;19951;-74
2023/05/23 00:33:08;;;;;;;;;;;22.40;54.00;;;;;;5039188;28;19987;-74
2023/05/23 00:35:34;;;;;;;;;;;22.40;54.00;;;;;;5037389;28;19913;-74
2023/05/23 00:38:01;;;;;;;;;;;22.40;54.20;;;;;;5045133;28;19948;-74
2023/05/23 00:40:26;;;;;;;;;;;22.40;53.90;;;;;;5057347;28;19950;-74
2023/05/23 00:42:52;;;;;;;;;;;22.40;54.10;;;;;;5057246;28;19909;-74
2023/05/23 00:45:17;;;;;;;;;;;22.40;53.70;;;;;;5057023;28;19951;-74
2023/05/23 00:47:43;;;;;;;;;;;22.40;53.90;;;;;;5057047;28;19971;-74
2023/05/23 00:50:10;;;;;;;;;;;22.30;53.80;;;;;;5056137;28;19905;-74
2023/05/23 00:52:37;;;;;;;;;;;22.30;53.90;;;;;;5055952;28;20274;-74
2023/05/23 00:55:02;;;;;;;;;;;22.30;54.10;;;;;;5057155;28;20366;-74
2023/05/23 00:57:28;;;;;;;;;;;22.30;53.90;;;;;;5055656;28;19904;-74
2023/05/23 00:59:54;;;;;;;;;;;22.20;54.20;;;;;;5056308;28;19908;-75
2023/05/23 01:02:20;;;;;;;;;;;22.20;54.10;;;;;;5045840;28;19905;-75
2023/05/23 01:04:53;;;;;;;;;;;22.20;54.60;;;;;;5044919;28;19905;-74
2023/05/23 01:07:18;;;;;;;;;;;22.20;54.10;;;;;;5046052;28;20363;-74
2023/05/23 01:09:44;;;;;;;;;;;22.10;54.60;;;;;;5046749;28;19909;-74
2023/05/23 01:12:15;;;;;;;;;;;22.00;54.30;;;;;;5045530;28;19905;-74
2023/05/23 01:14:44;;;;;;;;;;;22.00;54.00;;;;;;5045903;28;19912;-74
2023/05/23 01:17:12;;;;;;;;;;;22.00;54.10;;;;;;5044143;28;19908;-73
2023/05/23 01:20:01;;;;;;;;;;;22.00;54.20;;;;;;5046033;28;20201;-73
2023/05/23 01:22:45;;;;;;;;;;;22.00;54.20;;;;;;5042048;28;20007;-73
2023/05/23 01:25:20;;;;;;;;;;;22.00;54.70;;;;;;5034981;28;19905;-73
2023/05/23 01:27:55;;;;;;;;;;;22.10;54.40;;;;;;5035090;28;19917;-74
2023/05/23 01:30:22;;;;;;;;;;;22.10;54.80;;;;;;5036126;28;19909;-74
2023/05/23 01:32:49;;;;;;;;;;;22.10;54.80;;;;;;5035383;28;19917;-74
2023/05/23 01:35:21;;;;;;;;;;;22.20;54.70;;;;;;5036664;28;19911;-74
2023/05/23 01:37:46;;;;;;;;;;;22.20;54.40;;;;;;5036524;28;19905;-74
2023/05/23 01:40:12;;;;;;;;;;;22.20;54.50;;;;;;5036500;28;20430;-74
2023/05/23 01:42:38;;;;;;;;;;;22.20;54.80;;;;;;5036923;28;19948;-74
2023/05/23 01:45:03;;;;;;;;;;;22.20;54.40;;;;;;5035216;28;19959;-74
2023/05/23 01:47:29;;;;;;;;;;;22.20;54.30;;;;;;5036307;28;19908;-74
2023/05/23 01:49:55;;;;;;;;;;;22.20;54.00;;;;;;5036376;28;19963;-75
2023/05/23 01:52:21;;;;;;;;;;;22.20;53.90;;;;;;5036586;28;19905;-74
2023/05/23 01:54:47;;;;;;;;;;;22.30;54.30;;;;;;5038814;28;20347;-73
2023/05/23 01:57:13;;;;;;;;;;;22.30;53.90;;;;;;5036258;28;19905;-73
2023/05/23 01:59:39;;;;;;;;;;;22.20;54.00;;;;;;5036373;28;19912;-73
2023/05/23 02:02:05;;;;;;;;;;;22.20;53.80;;;;;;5035953;28;19905;-73
2023/05/23 02:04:30;;;;;;;;;;;22.20;54.00;;;;;;5036073;28;20286;-73
2023/05/23 02:06:56;;;;;;;;;;;22.30;53.80;;;;;;5036218;28;20002;-73
2023/05/23 02:09:21;;;;;;;;;;;22.20;54.10;;;;;;5037110;28;19909;-74
2023/05/23 02:11:47;;;;;;;;;;;22.20;54.10;;;;;;5034892;28;19912;-75
2023/05/23 02:14:12;;;;;;;;;;;22.20;54.00;;;;;;5036004;28;20267;-74
2023/05/23 02:16:38;;;;;;;;;;;22.20;53.80;;;;;;5035805;28;19905;-74
2023/05/23 02:19:03;;;;;;;;;;;22.30;54.20;;;;;;5035613;28;19951;-74
2023/05/23 02:21:30;;;;;;;;;;;22.30;54.20;;;;;;5035684;28;20367;-74
2023/05/23 02:23:56;;;;;;;;;;;22.30;54.10;;;;;;5034402;28;19909;-74
2023/05/23 02:26:21;;;;;;;;;;;22.30;54.10;;;;;;5035644;28;20270;-73
2023/05/23 02:28:47;;;;;;;;;;;22.30;54.00;;;;;;5034307;28;19909;-73
2023/05/23 02:31:12;;;;;;;;;;;22.30;54.00;;;;;;5035417;28;19913;-73
2023/05/23 02:33:38;;;;;;;;;;;22.30;54.00;;;;;;5035634;28;20240;-73
2023/05/23 02:36:03;;;;;;;;;;;22.30;53.90;;;;;;5035718;28;19905;-73
2023/05/23 02:38:29;;;;;;;;;;;22.30;53.70;;;;;;5035371;28;19992;-74
2023/05/23 02:40:56;;;;;;;;;;;22.30;53.60;;;;;;5035157;28;20015;-73
2023/05/23 02:43:22;;;;;;;;;;;22.30;53.60;;;;;;5047629;28;19939;-74
2023/05/23 02:45:47;;;;;;;;;;;22.30;53.50;;;;;;5053412;28;19913;-75
2023/05/23 02:48:13;;;;;;;;;;;22.30;53.80;;;;;;5054877;28;19909;-69
2023/05/23 02:50:38;;;;;;;;;;;22.30;53.70;;;;;;5054625;28;19915;-70
2023/05/23 02:53:04;;;;;;;;;;;22.20;53.70;;;;;;5053685;28;19905;-71
2023/05/23 02:55:30;;;;;;;;;;;22.20;53.70;;;;;;5054721;28;20275;-71
2023/05/23 02:57:57;;;;;;;;;;;22.20;53.90;;;;;;5049820;28;19908;-72
2023/05/23 03:00:23;;;;;;;;;;;22.20;53.70;;;;;;5048895;28;19912;-71
2023/05/23 03:02:48;;;;;;;;;;;22.10;53.80;;;;;;5036059;28;19909;-72
2023/05/23 03:05:14;;;;;;;;;;;22.10;53.70;;;;;;5044954;28;19905;-72
2023/05/23 03:07:39;;;;;;;;;;;22.10;53.80;;;;;;5043129;28;19916;-71
2023/05/23 03:10:06;;;;;;;;;;;22.00;53.80;;;;;;5043597;28;19909;-71
2023/05/23 03:12:31;;;;;;;;;;;22.10;54.00;;;;;;5044124;28;19909;-71
2023/05/23 03:14:57;;;;;;;;;;;22.00;53.80;;;;;;5042969;28;20264;-70
2023/05/23 03:17:24;;;;;;;;;;;22.00;53.90;;;;;;5044906;28;19958;-71
2023/05/23 03:19:50;;;;;;;;;;;22.00;53.90;;;;;;5043683;28;20367;-71
2023/05/23 03:22:15;;;;;;;;;;;22.00;54.10;;;;;;5035543;28;19920;-71
2023/05/23 03:24:41;;;;;;;;;;;22.00;54.00;;;;;;5034318;28;19912;-70
2023/05/23 03:27:07;;;;;;;;;;;22.00;54.10;;;;;;5034281;28;19916;-70
2023/05/23 03:29:33;;;;;;;;;;;22.00;54.40;;;;;;5033242;28;19913;-70
2023/05/23 03:31:58;;;;;;;;;;;22.00;54.20;;;;;;5048382;28;19904;-70
2023/05/23 03:34:25;;;;;;;;;;;21.90;54.00;;;;;;5053970;28;19917;-70
2023/05/23 03:36:51;;;;;;;;;;;21.90;54.00;;;;;;5052194;28;19912;-72
2023/05/23 03:39:16;;;;;;;;;;;21.90;54.00;;;;;;5053133;28;19904;-71
2023/05/23 03:41:42;;;;;;;;;;;21.90;54.20;;;;;;5053005;28;19909;-73
2023/05/23 03:44:07;;;;;;;;;;;21.90;54.30;;;;;;5052184;28;19905;-72
2023/05/23 03:46:33;;;;;;;;;;;21.90;54.20;;;;;;5053243;28;19912;-72
2023/05/23 03:48:58;;;;;;;;;;;21.90;54.30;;;;;;5051322;28;19917;-74
2023/05/23 03:51:24;;;;;;;;;;;21.90;54.40;;;;;;5045945;28;20346;-72
2023/05/23 03:53:49;;;;;;;;;;;21.90;54.40;;;;;;5046017;28;19959;-72
2023/05/23 03:56:15;;;;;;;;;;;21.90;54.30;;;;;;5053247;28;19931;-73
2023/05/23 03:58:40;;;;;;;;;;;21.90;54.60;;;;;;5051684;28;19904;-74
2023/05/23 04:01:06;;;;;;;;;;;21.90;54.40;;;;;;5044100;28;19909;-72
2023/05/23 04:03:32;;;;;;;;;;;21.90;54.20;;;;;;5038863;28;19992;-74
2023/05/23 04:05:58;;;;;;;;;;;22.00;54.10;;;;;;5031643;28;20016;-72
2023/05/23 04:08:24;;;;;;;;;;;22.00;54.40;;;;;;5039289;28;20327;-73
2023/05/23 04:10:49;;;;;;;;;;;22.00;54.40;;;;;;5037002;28;19956;-71
2023/05/23 04:13:15;;;;;;;;;;;22.00;54.40;;;;;;5040132;28;19909;-73
2023/05/23 04:15:41;;;;;;;;;;;22.10;54.30;;;;;;5048806;28;19916;-72
2023/05/23 04:18:08;;;;;;;;;;;22.10;54.40;;;;;;5053632;28;19909;-71
2023/05/23 04:20:33;;;;;;;;;;;22.10;54.50;;;;;;5046815;28;19909;-72
2023/05/23 04:22:59;;;;;;;;;;;22.10;54.40;;;;;;5044965;28;19931;-71
2023/05/23 04:25:25;;;;;;;;;;;22.20;54.30;;;;;;5043613;28;19912;-73
2023/05/23 04:27:51;;;;;;;;;;;22.20;54.20;;;;;;5036862;28;19959;-72
2023/05/23 04:30:18;;;;;;;;;;;22.30;54.20;;;;;;5039774;28;20020;-74
2023/05/23 04:32:44;;;;;;;;;;;22.30;54.40;;;;;;5046395;28;19923;-74
2023/05/23 04:35:10;;;;;;;;;;;22.30;54.00;;;;;;5043428;28;19909;-73
2023/05/23 04:37:36;;;;;;;;;;;22.40;54.10;;;;;;5055645;28;20382;-74
2023/05/23 04:40:02;;;;;;;;;;;22.40;54.10;;;;;;5056343;28;19917;-71
2023/05/23 04:42:28;;;;;;;;;;;22.40;53.80;;;;;;5056245;28;19905;-73
2023/05/23 04:44:56;;;;;;;;;;;22.50;53.80;;;;;;5056051;28;19915;-72
2023/05/23 04:47:23;;;;;;;;;;;22.50;53.90;;;;;;5036948;28;19916;-72
2023/05/23 04:49:49;;;;;;;;;;;22.60;54.10;;;;;;5040061;28;20003;-72
2023/05/23 04:52:17;;;;;;;;;;;22.60;54.00;;;;;;5037276;28;19958;-73
2023/05/23 04:54:45;;;;;;;;;;;22.60;53.90;;;;;;5053658;28;19944;-73
2023/05/23 04:57:11;;;;;;;;;;;22.70;53.80;;;;;;5053898;28;19947;-72
2023/05/23 04:59:37;;;;;;;;;;;22.70;53.80;;;;;;5056062;28;19951;-72
2023/05/23 05:02:02;;;;;;;;;;;22.80;53.80;;;;;;5045658;28;19912;-72
2023/05/23 05:04:28;;;;;;;;;;;22.80;53.70;;;;;;5037854;28;19913;-75
2023/05/23 05:06:53;;;;;;;;;;;22.90;53.80;;;;;;5042922;28;20305;-73
2023/05/23 05:09:20;;;;;;;;;;;22.90;53.60;;;;;;5044080;28;19913;-76
2023/05/23 05:11:46;;;;;;;;;;;23.00;53.60;;;;;;5039350;28;19920;-76
2023/05/23 05:14:11;;;;;;;;;;;23.00;53.50;;;;;;5048192;28;20266;-74
2023/05/23 05:16:37;;;;;;;;;;;23.10;53.50;;;;;;5055191;28;19931;-73
2023/05/23 05:19:02;;;;;;;;;;;23.10;53.40;;;;;;5055705;28;20366;-74
2023/05/23 05:21:28;;;;;;;;;;;23.10;53.40;;;;;;5047371;28;19912;-73
2023/05/23 05:23:55;;;;;;;;;;;23.10;53.30;;;;;;5043508;28;20453;-75
2023/05/23 05:26:22;;;;;;;;;;;23.20;53.40;;;;;;5041832;28;19909;-76
2023/05/23 05:28:48;;;;;;;;;;;23.20;53.30;;;;;;5046071;28;19912;-76
2023/05/23 05:31:14;;;;;;;;;;;23.20;53.30;;;;;;5043022;28;19932;-76
2023/05/23 05:33:44;;;;;;;;;;;23.30;53.30;;;;;;5043064;28;19970;-75
2023/05/23 05:36:10;;;;;;;;;;;23.30;53.30;;;;;;5045943;28;20358;-75
2023/05/23 05:38:36;;;;;;;;;;;23.40;53.30;;;;;;5043444;28;20000;-73
2023/05/23 05:41:01;;;;;;;;;;;23.40;53.10;;;;;;5053674;28;19908;-73
2023/05/23 05:43:27;;;;;;;;;;;23.40;53.10;;;;;;5054875;28;20004;-73
2023/05/23 05:45:52;;;;;;;;;;;23.40;53.10;;;;;;5053597;28;19909;-72
2023/05/23 05:48:18;;;;;;;;;;;23.50;53.10;;;;;;5048442;28;19917;-71
2023/05/23 05:50:44;;;;;;;;;;;23.40;53.10;;;;;;5049235;28;19915;-71
2023/05/23 05:53:12;;;;;;;;;;;23.40;53.10;;;;;;5054226;28;19950;-71
2023/05/23 05:55:38;;;;;;;;;;;23.50;53.10;;;;;;5054442;28;19944;-71
2023/05/23 05:58:04;;;;;;;;;;;23.40;53.10;;;;;;5055620;28;19955;-71
2023/05/23 06:00:29;;;;;;;;;;;23.50;53.10;;;;;;5055858;28;20267;-71
2023/05/23 06:02:56;;;;;;;;;;;23.50;53.10;;;;;;5056015;28;19951;-70
2023/05/23 06:05:22;;;;;;;;;;;23.50;53.10;;;;;;5055916;28;20372;-70
2023/05/23 06:07:48;;;;;;;;;;;23.50;53.10;;;;;;5055612;28;19913;-70
2023/05/23 06:10:14;;;;;;;;;;;23.50;53.10;;;;;;5054496;28;19946;-72
2023/05/23 06:12:40;;;;;;;;;;;23.60;53.10;;;;;;5055473;28;19905;-72
2023/05/23 06:15:05;;;;;;;;;;;23.60;53.10;;;;;;5054273;28;19905;-72
2023/05/23 06:17:31;;;;;;;;;;;23.60;53.10;;;;;;5055551;28;19905;-72
2023/05/23 06:19:56;;;;;;;;;;;23.70;53.00;;;;;;5055905;28;19963;-70
2023/05/23 06:22:22;;;;;;;;;;;23.70;53.00;;;;;;5055591;28;19963;-71
2023/05/23 06:24:47;;;;;;;;;;;23.80;52.90;;;;;;5055361;28;19912;-70
2023/05/23 06:27:13;;;;;;;;;;;23.80;52.90;;;;;;5055207;28;20339;-70
2023/05/23 06:29:38;;;;;;;;;;;23.90;52.80;;;;;;5055168;28;19920;-70
2023/05/23 06:32:04;;;;;;;;;;;23.90;52.70;;;;;;5054797;28;19948;-71
2023/05/23 06:34:30;;;;;;;;;;;23.90;52.60;;;;;;5055114;28;19951;-71
2023/05/23 06:36:55;;;;;;;;;;;24.00;52.60;;;;;;5055062;28;19905;-71
2023/05/23 06:39:21;;;;;;;;;;;24.00;52.50;;;;;;5055039;28;19916;-71
2023/05/23 06:41:47;;;;;;;;;;;24.10;52.40;;;;;;5054932;28;19904;-71
2023/05/23 06:44:12;;;;;;;;;;;24.10;52.40;;;;;;5054838;28;19908;-71
2023/05/23 06:46:38;;;;;;;;;;;24.10;52.40;;;;;;5055149;28;20359;-72
2023/05/23 06:49:03;;;;;;;;;;;24.10;52.30;;;;;;5053798;28;19916;-71
2023/05/23 06:51:30;;;;;;;;;;;24.20;52.30;;;;;;5055117;28;19912;-71
2023/05/23 06:53:55;;;;;;;;;;;24.20;52.20;;;;;;5053528;28;19904;-71
2023/05/23 06:56:24;;;;;;;;;;;24.30;52.20;;;;;;5054600;28;19911;-71
2023/05/23 06:58:50;;;;;;;;;;;24.30;52.10;;;;;;5054663;28;19905;-71
2023/05/23 07:01:15;;;;;;;;;;;24.30;52.00;;;;;;5054780;28;19912;-71
2023/05/23 07:03:43;;;;;;;;;;;24.40;52.00;;;;;;5054814;28;20421;-71
2023/05/23 07:06:08;;;;;;;;;;;24.40;52.00;;;;;;5054463;28;19909;-72
2023/05/23 07:08:34;;;;;;;;;;;24.40;51.90;;;;;;5054653;28;20039;-72
2023/05/23 07:10:59;;;;;;;;;;;24.40;51.70;;;;;;5054625;28;19904;-71
2023/05/23 07:13:25;;;;;;;;;;;24.40;51.70;;;;;;5054326;28;20345;-71
2023/05/23 07:15:50;;;;;;;;;;;24.50;51.70;;;;;;5054510;28;19908;-70
2023/05/23 07:18:16;;;;;;;;;;;24.50;51.60;;;;;;5054319;28;19905;-70
2023/05/23 07:20:41;;;;;;;;;;;24.60;51.60;;;;;;5054399;28;20342;-71
2023/05/23 07:23:07;;;;;;;;;;;24.60;51.50;;;;;;5054177;28;20309;-71
2023/05/23 07:25:32;;;;;;;;;;;24.60;52.00;;;;;;5054179;28;19943;-71
2023/05/23 07:27:58;;;;;;;;;;;24.70;51.60;;;;;;5054123;28;20392;-70
2023/05/23 07:30:24;;;;;;;;;;;24.80;51.30;;;;;;5053003;28;20003;-71
2023/05/23 07:32:51;;;;;;;;;;;24.80;51.20;;;;;;5052971;28;19917;-71
2023/05/23 07:35:17;;;;;;;;;;;24.90;51.10;;;;;;5052812;28;19905;-71
2023/05/23 07:37:43;;;;;;;;;;;25.00;51.00;;;;;;5054305;28;19984;-71
2023/05/23 07:40:09;;;;;;;;;;;25.00;50.80;;;;;;5053943;28;19987;-72
2023/05/23 07:42:34;;;;;;;;;;;25.10;50.80;;;;;;5052452;28;19912;-72
2023/05/23 07:45:00;;;;;;;;;;;25.10;50.70;;;;;;5052331;28;19905;-71
2023/05/23 07:47:26;;;;;;;;;;;25.10;50.60;;;;;;5052854;28;19909;-72
2023/05/23 07:49:52;;;;;;;;;;;25.20;50.50;;;;;;5054049;28;20342;-71
2023/05/23 07:52:17;;;;;;;;;;;25.30;50.50;;;;;;5052682;28;19952;-71
2023/05/23 07:54:43;;;;;;;;;;;25.30;50.30;;;;;;5053635;28;19911;-71
2023/05/23 07:57:09;;;;;;;;;;;25.40;50.30;;;;;;5053199;28;20305;-71
2023/05/23 07:59:35;;;;;;;;;;;25.50;50.20;;;;;;5053795;28;19999;-71
2023/05/23 08:02:00;;;;;;;;;;;25.50;50.20;;;;;;5052682;28;19911;-72
2023/05/23 08:04:26;;;;;;;;;;;25.60;50.00;;;;;;5053818;28;20421;-72
2023/05/23 08:06:52;;;;;;;;;;;25.60;50.00;;;;;;5053562;28;20013;-72
2023/05/23 08:09:18;;;;;;;;;;;25.70;50.00;;;;;;5053660;28;19912;-72
2023/05/23 08:11:43;;;;;;;;;;;25.70;49.90;;;;;;5053559;28;19909;-70
2023/05/23 08:14:09;;;;;;;;;;;25.80;49.80;;;;;;5053699;28;19912;-70
2023/05/23 08:16:35;;;;;;;;;;;25.80;49.70;;;;;;5053534;28;20278;-71
2023/05/23 08:19:01;;;;;;;;;;;25.80;49.60;;;;;;5052262;28;19912;-71
2023/05/23 08:21:26;;;;;;;;;;;25.90;49.60;;;;;;5053369;28;19904;-71
2023/05/23 08:23:52;;;;;;;;;;;25.90;49.60;;;;;;5053663;28;19908;-71
2023/05/23 08:26:17;;;;;;;;;;;26.00;49.50;;;;;;5051845;28;20301;-71
2023/05/23 08:28:43;;;;;;;;;;;26.00;49.50;;;;;;5053581;28;20404;-70
2023/05/23 08:31:08;;;;;;;;;;;26.10;49.40;;;;;;5053246;28;20007;-71
2023/05/23 08:33:34;;;;;;;;;;;26.10;49.30;;;;;;5053199;28;19916;-71
2023/05/23 08:35:59;;;;;;;;;;;26.10;49.30;;;;;;5053300;28;20342;-71
2023/05/23 08:38:26;;;;;;;;;;;26.20;49.30;;;;;;5053395;28;19905;-71
2023/05/23 08:40:51;;;;;;;;;;;26.20;49.20;;;;;;5053040;28;19905;-70
2023/05/23 08:43:18;;;;;;;;;;;26.20;49.30;;;;;;5053698;28;19987;-71
2023/05/23 08:45:44;;;;;;;;;;;26.20;49.30;;;;;;5053181;28;20366;-70
2023/05/23 08:48:12;;;;;;;;;;;26.20;49.20;;;;;;5052203;28;20373;-70
2023/05/23 08:50:38;;;;;;;;;;;26.20;49.30;;;;;;5051041;28;19905;-71
2023/05/23 08:53:07;;;;;;;;;;;26.20;49.20;;;;;;5053123;28;19950;-72
2023/05/23 08:55:33;;;;;;;;;;;26.20;49.10;;;;;;5055832;28;20003;-71
2023/05/23 08:57:59;;;;;;;;;;;26.20;49.20;;;;;;5055789;28;20387;-72
2023/05/23 09:00:25;;;;;;;;;;;26.20;49.20;;;;;;5056879;28;19996;-72
2023/05/23 09:02:52;;;;;;;;;;;26.20;49.20;;;;;;5056837;28;20308;-71
2023/05/23 09:05:18;;;;;;;;;;;26.10;49.10;;;;;;5056910;28;19916;-71
2023/05/23 09:07:46;;;;;;;;;;;26.10;49.20;;;;;;5055140;28;20270;-72
2023/05/23 09:10:13;;;;;;;;;;;26.10;49.20;;;;;;5056695;28;19957;-71
2023/05/23 09:12:38;;;;;;;;;;;26.10;49.20;;;;;;5057167;28;20000;-71
2023/05/23 09:15:05;;;;;;;;;;;26.10;49.20;;;;;;5056534;28;19987;-71
2023/05/23 09:17:32;;;;;;;;;;;26.00;49.20;;;;;;5056809;28;20274;-72
2023/05/23 09:19:58;;;;;;;;;;;26.10;49.20;;;;;;5056383;28;19916;-72
2023/05/23 09:22:25;;;;;;;;;;;26.10;49.30;;;;;;5054960;28;19905;-72
2023/05/23 09:24:51;;;;;;;;;;;26.10;49.30;;;;;;5055159;28;19905;-72
2023/05/23 09:27:17;;;;;;;;;;;26.10;49.20;;;;;;5056314;28;19913;-72
2023/05/23 09:29:43;;;;;;;;;;;26.20;49.40;;;;;;5056394;28;19966;-72
2023/05/23 09:32:09;;;;;;;;;;;26.20;49.30;;;;;;5056287;28;19905;-72
2023/05/23 09:34:35;;;;;;;;;;;26.20;49.20;;;;;;5056231;28;20335;-73
2023/05/23 09:37:02;;;;;;;;;;;26.30;49.30;;;;;;5056174;28;19951;-71
2023/05/23 09:39:28;;;;;;;;;;;26.30;49.00;;;;;;5056258;28;20335;-70
2023/05/23 09:41:53;;;;;;;;;;;26.20;49.00;;;;;;5055955;28;19911;-70
2023/05/23 09:44:21;;;;;;;;;;;26.20;49.10;;;;;;5056420;28;20339;-71
2023/05/23 09:46:51;;;;;;;;;;;26.20;49.20;;;;;;5055963;28;20426;-71
2023/05/23 09:49:17;;;;;;;;;;;26.30;49.30;;;;;;5056182;28;19904;-72
2023/05/23 09:51:42;;;;;;;;;;;26.20;49.20;;;;;;5054426;28;20003;-71
2023/05/23 09:54:08;;;;;;;;;;;26.20;49.10;;;;;;5056149;28;19905;-71
2023/05/23 09:56:36;;;;;;;;;;;26.20;49.10;;;;;;5054528;28;19904;-71
2023/05/23 09:59:02;;;;;;;;;;;26.20;49.30;;;;;;5054463;28;20263;-71
2023/05/23 10:01:29;;;;;;;;;;;26.20;49.30;;;;;;5055455;28;20374;-71
2023/05/23 10:03:56;;;;;;;;;;;26.20;49.40;;;;;;5055629;28;19912;-71
2023/05/23 10:06:36;;;;;;;;;;;26.20;49.40;;;;;;5054726;28;19917;-72
2023/05/23 10:09:07;;;;;;;;;;;26.30;49.40;;;;;;5055967;28;19908;-71
2023/05/23 10:11:35;;;;;;;;;;;26.30;49.40;;;;;;5055748;28;19909;-71
2023/05/23 10:14:08;;;;;;;;;;;26.40;49.40;;;;;;5055400;28;19919;-71
2023/05/23 10:17:03;;;;;;;;;;;26.40;49.10;;;;;;5055450;28;20347;-71
2023/05/23 10:19:32;;;;;;;;;;;26.50;49.10;;;;;;5054535;28;19915;-72
2023/05/23 10:21:59;;;;;;;;;;;26.60;49.00;;;;;;5055139;28;20263;-71
2023/05/23 10:24:27;;;;;;;;;;;26.70;49.00;;;;;;5053969;28;20446;-71
2023/05/23 10:26:54;;;;;;;;;;;26.70;48.90;;;;;;5053529;28;20007;-72
2023/05/23 10:29:23;;;;;;;;;;;26.70;48.90;;;;;;5053808;28;19915;-72
2023/05/23 10:31:49;;;;;;;;;;;26.70;48.80;;;;;;5054999;28;19919;-71
2023/05/23 10:34:15;;;;;;;;;;;26.70;48.70;;;;;;5053788;28;20007;-71
2023/05/23 10:37:03;;;;;;;;;;;26.80;48.90;;;;;;5054814;28;19936;-72
2023/05/23 10:39:35;;;;;;;;;;;26.80;48.80;;;;;;5054654;28;19923;-71
2023/05/23 10:42:03;;;;;;;;;;;26.80;48.70;;;;;;5055198;28;19912;-72
2023/05/23 10:44:29;;;;;;;;;;;26.90;48.70;;;;;;5054864;28;19971;-71
2023/05/23 10:46:56;;;;;;;;;;;26.90;48.70;;;;;;5054751;28;19912;-71
2023/05/23 10:49:41;;;;;;;;;;;26.90;48.70;;;;;;5054833;28;20347;-71
2023/05/23 10:52:07;;;;;;;;;;;27.00;48.50;;;;;;5054476;28;19948;-71
2023/05/23 10:54:51;;;;;;;;;;;27.10;48.50;;;;;;5054536;28;19948;-71
2023/05/23 10:57:20;;;;;;;;;;;27.10;48.00;;;;;;5054804;28;19904;-72
2023/05/23 10:59:49;;;;;;;;;;;27.10;48.10;;;;;;5054673;28;19951;-72
2023/05/23 11:02:15;;;;;;;;;;;27.20;48.00;;;;;;5054433;28;19904;-72
2023/05/23 11:04:41;;;;;;;;;;;27.10;48.00;;;;;;5054210;28;19924;-72
2023/05/23 11:07:33;;;;;;;;;;;27.10;48.00;;;;;;5054437;28;20008;-72
2023/05/23 11:10:09;;;;;;;;;;;27.20;48.10;;;;;;5054009;28;19962;-72
2023/05/23 11:12:36;;;;;;;;;;;27.30;48.10;;;;;;5054472;28;20312;-72
2023/05/23 11:15:01;;;;;;;;;;;27.30;48.00;;;;;;5054113;28;20007;-72
2023/05/23 11:17:31;;;;;;;;;;;27.40;48.00;;;;;;5054253;28;19971;-72
2023/05/23 11:20:07;;;;;;;;;;;27.40;48.70;;;;;;5054168;28;19911;-71
2023/05/23 11:22:33;;;;;;;;;;;27.40;47.90;;;;;;5054439;28;19905;-71
2023/05/23 11:25:00;;;;;;;;;;;27.50;47.90;;;;;;5053976;28;20381;-72
2023/05/23 11:27:25;;;;;;;;;;;27.50;47.90;;;;;;5053796;28;19916;-72
2023/05/23 11:29:56;;;;;;;;;;;27.50;47.90;;;;;;5053277;28;20244;-72
2023/05/23 11:32:22;;;;;;;;;;;27.50;47.70;;;;;;5054114;28;19924;-72
2023/05/23 11:34:48;;;;;;;;;;;27.50;47.70;;;;;;5054051;28;19905;-71
2023/05/23 11:37:13;;;;;;;;;;;27.50;47.60;;;;;;5054316;28;19904;-72
2023/05/23 11:39:39;;;;;;;;;;;27.50;47.10;;;;;;5052482;28;20414;-72
2023/05/23 11:42:05;;;;;;;;;;;27.50;47.50;;;;;;5053644;28;20034;-72
2023/05/23 11:44:31;;;;;;;;;;;27.50;47.50;;;;;;5053923;28;19905;-71
2023/05/23 11:47:00;;;;;;;;;;;27.50;47.70;;;;;;5053774;28;19943;-71
2023/05/23 11:49:34;;;;;;;;;;;27.50;47.70;;;;;;5053694;28;19911;-72
2023/05/23 11:52:01;;;;;;;;;;;27.50;47.70;;;;;;5053565;28;19912;-72
2023/05/23 11:54:27;;;;;;;;;;;27.50;47.60;;;;;;5052086;28;19935;-71
2023/05/23 11:56:53;;;;;;;;;;;27.50;47.60;;;;;;5053910;28;19905;-71
2023/05/23 11:59:18;;;;;;;;;;;27.50;47.60;;;;;;5053891;28;19909;-72
2023/05/23 12:01:44;;;;;;;;;;;27.50;47.50;;;;;;5054135;28;19992;-71
2023/05/23 12:04:11;;;;;;;;;;;27.50;47.40;;;;;;5053719;28;20011;-71
2023/05/23 12:06:38;;;;;;;;;;;27.50;47.40;;;;;;5053514;28;19924;-71
2023/05/23 12:09:04;;;;;;;;;;;27.50;47.40;;;;;;5053640;28;19948;-71
2023/05/23 12:11:32;;;;;;;;;;;27.50;47.30;;;;;;5053819;28;19905;-72
2023/05/23 12:14:00;;;;;;;;;;;27.60;47.20;;;;;;5053392;28;19912;-72
2023/05/23 12:16:27;;;;;;;;;;;27.60;47.20;;;;;;5052349;28;19905;-71
2023/05/23 12:18:53;;;;;;;;;;;27.60;47.00;;;;;;5053757;28;20328;-71
2023/05/23 12:21:18;;;;;;;;;;;27.60;46.90;;;;;;5053514;28;19909;-72
2023/05/23 12:23:44;;;;;;;;;;;27.70;47.10;;;;;;5053113;28;19927;-71
2023/05/23 12:26:09;;;;;;;;;;;27.80;47.20;;;;;;5053372;28;20255;-71
2023/05/23 12:28:36;;;;;;;;;;;27.90;47.10;;;;;;5053622;28;19905;-72
2023/05/23 12:31:09;;;;;;;;;;;28.00;47.10;;;;;;5056873;28;20327;-71
2023/05/23 12:33:37;;;;;;;;;;;28.10;46.80;;;;;;5057602;28;20323;-71
2023/05/23 12:36:02;;;;;;;;;;;28.20;46.60;;;;;;5055850;28;19909;-71
2023/05/23 12:38:28;;;;;;;;;;;28.30;46.50;;;;;;5057596;28;19912;-71
2023/05/23 12:41:09;;;;;;;;;;;28.40;46.50;;;;;;5056269;28;19912;-71
2023/05/23 12:43:38;;;;;;;;;;;28.40;46.50;;;;;;5057040;28;19919;-71
2023/05/23 12:46:05;;;;;;;;;;;28.40;46.20;;;;;;5055617;28;19920;-72
2023/05/23 12:48:30;;;;;;;;;;;28.50;46.30;;;;;;5056777;28;19995;-72
2023/05/23 12:50:56;;;;;;;;;;;28.50;46.20;;;;;;5055624;28;19944;-72
2023/05/23 12:53:22;;;;;;;;;;;28.60;46.30;;;;;;5056817;28;19970;-72
2023/05/23 12:55:47;;;;;;;;;;;28.60;46.10;;;;;;5055658;28;19909;-72
2023/05/23 12:58:13;;;;;;;;;;;28.60;46.00;;;;;;5056886;28;19958;-72
2023/05/23 13:00:38;;;;;;;;;;;28.60;45.90;;;;;;5056814;28;19912;-72
2023/05/23 13:03:05;;;;;;;;;;;28.70;46.10;;;;;;5056589;28;19905;-73
2023/05/23 13:05:31;;;;;;;;;;;28.80;46.10;;;;;;5056513;28;19905;-72
2023/05/23 13:07:58;;;;;;;;;;;29.00;46.10;;;;;;5056580;28;19958;-71
2023/05/23 13:10:23;;;;;;;;;;;29.10;45.50;;;;;;5056679;28;19912;-72
2023/05/23 13:12:49;;;;;;;;;;;29.30;45.70;;;;;;5056477;28;19905;-71
2023/05/23 13:15:15;;;;;;;;;;;29.40;45.60;;;;;;5056517;28;20050;-72
2023/05/23 13:17:40;;;;;;;;;;;29.70;45.60;;;;;;5056277;28;19905;-72
2023/05/23 13:20:08;;;;;;;;;;;29.90;45.60;;;;;;5056458;28;19904;-72
2023/05/23 13:22:33;;;;;;;;;;;30.10;45.20;;;;;;5055130;28;19995;-71
2023/05/23 13:24:59;;;;;;;;;;;30.30;45.30;;;;;;5055201;28;19948;-72
2023/05/23 13:27:24;;;;;;;;;;;30.60;45.30;;;;;;5056118;28;19924;-72
2023/05/23 13:29:50;;;;;;;;;;;31.00;45.00;;;;;;5056115;28;20413;-71
2023/05/23 13:32:15;;;;;;;;;;;31.20;44.80;;;;;;5054817;28;19991;-71
2023/05/23 13:34:41;;;;;;;;;;;31.30;44.60;;;;;;5055874;28;19904;-71
2023/05/23 13:37:06;;;;;;;;;;;31.50;44.90;;;;;;5055225;28;19940;-71
2023/05/23 13:39:32;;;;;;;;;;;32.00;45.30;;;;;;5056049;28;19909;-70
2023/05/23 13:41:58;;;;;;;;;;;32.60;45.30;;;;;;5054585;28;19904;-71
2023/05/23 13:44:23;;;;;;;;;;;33.30;45.00;;;;;;5054815;28;19928;-72
2023/05/23 13:46:49;;;;;;;;;;;34.10;44.40;;;;;;5055511;28;19919;-72
2023/05/23 13:49:14;;;;;;;;;;;34.80;43.70;;;;;;5054284;28;19973;-72
2023/05/23 13:51:42;;;;;;;;;;;35.30;43.30;;;;;;5055672;28;19991;-72
2023/05/23 13:54:07;;;;;;;;;;;35.90;42.90;;;;;;5055541;28;20054;-72
2023/05/23 13:56:33;;;;;;;;;;;36.40;42.40;;;;;;5055567;28;19962;-72
2023/05/23 13:58:58;;;;;;;;;;;36.80;42.20;;;;;;5055438;28;19905;-72
2023/05/23 14:01:24;;;;;;;;;;;37.20;42.10;;;;;;5055509;28;19991;-73
2023/05/23 14:03:49;;;;;;;;;;;37.40;41.90;;;;;;5055135;28;19905;-71
2023/05/23 14:06:15;;;;;;;;;;;37.60;41.80;;;;;;5055180;28;19916;-71
2023/05/23 14:08:40;;;;;;;;;;;37.80;41.70;;;;;;5055318;28;19970;-71
2023/05/23 14:11:06;;;;;;;;;;;37.90;41.10;;;;;;5055707;28;19928;-71
2023/05/23 14:13:32;;;;;;;;;;;37.90;41.10;;;;;;5055172;28;19944;-71